Time;durP1;ratioP1;P1;durP2;ratioP2;P2;SDS_P1;SDS_P2;PMS_P1;PMS_P2;Temp;Humidity;BMP_temperature;BMP_pressure;BME280_temperature;BME280_humidity;BME280_pressure;Samples;Min_cycle;Max_cycle;Signal;HPM_P1;HPM_P2
2024/03/05 00:01:02;;;;;;;232.50;61.77;;;;;;;;;;4986794;28;20677;-45
2024/03/05 00:03:28;;;;;;;234.05;64.68;;;;;;;;;;4986370;28;20438;-45
2024/03/05 00:05:54;;;;;;;231.00;62.95;;;;;;;;;;4983390;28;20518;-44
2024/03/05 00:08:21;;;;;;;236.25;64.40;;;;;;;;;;4991302;28;20187;-45
2024/03/05 00:10:47;;;;;;;230.93;64.10;;;;;;;;;;4988334;28;20190;-45
2024/03/05 00:13:13;;;;;;;230.20;62.85;;;;;;;;;;4978083;28;20275;-45
2024/03/05 00:15:39;;;;;;;230.43;61.80;;;;;;;;;;4987443;28;20268;-45
2024/03/05 00:18:05;;;;;;;228.73;60.30;;;;;;;;;;4985288;28;20176;-45
2024/03/05 00:20:32;;;;;;;225.52;58.53;;;;;;;;;;4984919;28;20180;-44
2024/03/05 00:23:01;;;;;;;227.85;60.83;;;;;;;;;;4989481;28;20196;-44
2024/03/05 00:25:27;;;;;;;233.27;62.95;;;;;;;;;;4989223;28;20184;-45
2024/03/05 00:27:54;;;;;;;228.27;59.40;;;;;;;;;;4986143;28;20198;-45
2024/03/05 00:30:20;;;;;;;230.50;61.70;;;;;;;;;;4986723;28;20180;-45
2024/03/05 00:32:47;;;;;;;230.13;62.10;;;;;;;;;;4987359;28;20204;-44
2024/03/05 00:35:15;;;;;;;237.25;63.97;;;;;;;;;;4983901;28;20502;-45
2024/03/05 00:37:41;;;;;;;233.82;61.17;;;;;;;;;;4990008;28;20218;-44
2024/03/05 00:40:10;;;;;;;231.93;61.53;;;;;;;;;;4988531;28;20192;-44
2024/03/05 00:42:37;;;;;;;232.82;60.40;;;;;;;;;;4992233;28;20520;-44
2024/03/05 00:45:06;;;;;;;235.00;61.80;;;;;;;;;;4983398;28;20198;-45
2024/03/05 00:47:33;;;;;;;231.63;60.22;;;;;;;;;;4977312;28;20196;-45
2024/03/05 00:49:59;;;;;;;234.68;62.88;;;;;;;;;;4984893;28;20172;-45
2024/03/05 00:52:25;;;;;;;232.27;60.53;;;;;;;;;;4989760;28;20345;-45
2024/03/05 00:54:51;;;;;;;235.17;62.63;;;;;;;;;;4986315;28;20263;-45
2024/03/05 00:57:17;;;;;;;232.93;61.10;;;;;;;;;;4986659;28;20748;-44
2024/03/05 00:59:43;;;;;;;234.90;62.40;;;;;;;;;;4986435;28;20408;-44
2024/03/05 01:02:09;;;;;;;234.00;61.17;;;;;;;;;;4981745;28;20517;-45
2024/03/05 01:04:35;;;;;;;234.88;62.05;;;;;;;;;;4990409;28;20251;-45
2024/03/05 01:07:01;;;;;;;234.20;61.20;;;;;;;;;;4987964;28;20181;-45
2024/03/05 01:09:28;;;;;;;231.47;61.07;;;;;;;;;;4988050;28;20183;-44
2024/03/05 01:11:54;;;;;;;235.52;63.33;;;;;;;;;;4984724;28;20450;-45
2024/03/05 01:14:20;;;;;;;233.27;61.80;;;;;;;;;;4986852;28;20243;-45
2024/03/05 01:16:47;;;;;;;235.55;64.82;;;;;;;;;;4986202;28;20206;-45
2024/03/05 01:19:13;;;;;;;233.38;61.63;;;;;;;;;;5004383;28;20175;-45
2024/03/05 01:21:41;;;;;;;231.98;60.80;;;;;;;;;;4986559;28;20179;-45
2024/03/05 01:24:07;;;;;;;230.70;60.47;;;;;;;;;;4986924;28;20207;-45
2024/03/05 01:26:32;;;;;;;231.57;61.05;;;;;;;;;;4985863;28;20183;-45
2024/03/05 01:28:58;;;;;;;233.23;61.70;;;;;;;;;;4983163;28;20835;-45
2024/03/05 01:31:26;;;;;;;227.43;57.97;;;;;;;;;;4989770;28;20913;-45
2024/03/05 01:33:52;;;;;;;234.10;61.30;;;;;;;;;;4987691;28;20465;-44
2024/03/05 01:36:19;;;;;;;230.17;61.00;;;;;;;;;;4989297;28;20235;-45
2024/03/05 01:38:46;;;;;;;232.40;61.67;;;;;;;;;;4979757;28;20447;-45
2024/03/05 01:41:13;;;;;;;232.40;61.22;;;;;;;;;;4985746;28;20183;-44
2024/03/05 01:43:40;;;;;;;229.60;59.47;;;;;;;;;;4983829;28;20193;-45
2024/03/05 01:46:07;;;;;;;234.07;61.28;;;;;;;;;;4988374;28;20188;-44
2024/03/05 01:48:33;;;;;;;232.85;61.45;;;;;;;;;;4989186;28;20184;-45
2024/03/05 01:50:59;;;;;;;236.05;63.50;;;;;;;;;;4986187;28;20247;-45
2024/03/05 01:53:25;;;;;;;227.23;59.35;;;;;;;;;;4987304;28;20218;-45
2024/03/05 01:55:53;;;;;;;230.15;61.65;;;;;;;;;;4985950;28;20206;-45
2024/03/05 01:58:21;;;;;;;227.18;59.45;;;;;;;;;;4984024;28;20180;-45
2024/03/05 02:00:47;;;;;;;238.57;65.13;;;;;;;;;;4987409;28;20555;-45
2024/03/05 02:03:13;;;;;;;234.63;63.28;;;;;;;;;;4975862;28;20211;-45
2024/03/05 02:05:42;;;;;;;240.40;66.53;;;;;;;;;;4985908;28;20184;-45
2024/03/05 02:08:08;;;;;;;235.35;63.25;;;;;;;;;;4983646;28;20180;-45
2024/03/05 02:10:34;;;;;;;232.33;60.50;;;;;;;;;;4984291;28;20197;-45
2024/03/05 02:13:00;;;;;;;232.70;61.30;;;;;;;;;;4986593;28;20444;-45
2024/03/05 02:15:26;;;;;;;234.75;63.15;;;;;;;;;;4988748;28;20458;-44
2024/03/05 02:17:53;;;;;;;233.97;63.07;;;;;;;;;;4987228;28;20566;-45
2024/03/05 02:20:20;;;;;;;234.13;62.40;;;;;;;;;;4987088;28;20414;-45
2024/03/05 02:22:46;;;;;;;230.50;62.08;;;;;;;;;;4983893;28;20219;-45
2024/03/05 02:25:13;;;;;;;234.17;62.63;;;;;;;;;;4970392;28;20637;-44
2024/03/05 02:27:39;;;;;;;233.98;63.55;;;;;;;;;;4988323;28;20410;-45
2024/03/05 02:30:10;;;;;;;233.40;60.88;;;;;;;;;;4982140;28;20232;-44
2024/03/05 02:32:40;;;;;;;231.60;62.00;;;;;;;;;;4982934;28;20205;-46
2024/03/05 02:35:06;;;;;;;237.27;63.95;;;;;;;;;;4987040;28;20672;-45
2024/03/05 02:37:32;;;;;;;235.32;64.40;;;;;;;;;;4981427;28;20539;-45
2024/03/05 02:39:58;;;;;;;234.23;62.80;;;;;;;;;;4980586;28;20193;-45
2024/03/05 02:42:25;;;;;;;232.13;60.73;;;;;;;;;;4981878;28;20296;-44
2024/03/05 02:44:50;;;;;;;235.90;63.65;;;;;;;;;;4986825;28;20423;-45
2024/03/05 02:47:16;;;;;;;233.43;62.30;;;;;;;;;;4986605;28;20180;-44
2024/03/05 02:49:42;;;;;;;234.53;62.20;;;;;;;;;;4977852;28;20455;-45
2024/03/05 02:52:08;;;;;;;232.67;60.60;;;;;;;;;;4986521;28;20458;-45
2024/03/05 02:54:34;;;;;;;234.63;62.90;;;;;;;;;;4985752;28;20960;-45
2024/03/05 02:57:03;;;;;;;232.47;61.17;;;;;;;;;;4980284;28;20909;-44
2024/03/05 02:59:29;;;;;;;234.32;61.35;;;;;;;;;;4988484;28;20454;-44
2024/03/05 03:01:55;;;;;;;237.43;65.60;;;;;;;;;;4985214;28;20203;-44
2024/03/05 03:04:21;;;;;;;234.43;63.57;;;;;;;;;;4985117;28;20481;-44
2024/03/05 03:06:47;;;;;;;233.25;63.08;;;;;;;;;;4989331;28;20923;-44
2024/03/05 03:09:13;;;;;;;231.90;61.30;;;;;;;;;;4987955;28;20276;-44
2024/03/05 03:11:41;;;;;;;234.55;63.08;;;;;;;;;;4979932;28;20282;-44
2024/03/05 03:14:08;;;;;;;233.25;62.13;;;;;;;;;;4982434;28;20192;-44
2024/03/05 03:16:34;;;;;;;236.68;64.72;;;;;;;;;;4990998;28;20742;-44
2024/03/05 03:19:00;;;;;;;232.00;63.55;;;;;;;;;;4991484;28;20180;-44
2024/03/05 03:21:26;;;;;;;231.53;61.27;;;;;;;;;;4978047;28;20180;-43
2024/03/05 03:23:52;;;;;;;233.70;61.83;;;;;;;;;;4982367;28;20521;-44
2024/03/05 03:26:18;;;;;;;236.00;64.87;;;;;;;;;;4990642;28;20416;-44
2024/03/05 03:28:44;;;;;;;231.23;61.70;;;;;;;;;;4983115;28;20414;-44
2024/03/05 03:31:10;;;;;;;232.87;62.80;;;;;;;;;;4994852;28;20420;-44
2024/03/05 03:33:38;;;;;;;232.32;61.67;;;;;;;;;;4986701;28;20449;-44
2024/03/05 03:36:04;;;;;;;232.77;62.00;;;;;;;;;;4986489;28;20210;-44
2024/03/05 03:38:30;;;;;;;235.80;64.63;;;;;;;;;;4989160;28;20179;-44
2024/03/05 03:40:56;;;;;;;234.20;62.90;;;;;;;;;;4984754;28;20207;-44
2024/03/05 03:43:22;;;;;;;233.33;62.47;;;;;;;;;;4994728;28;20431;-44
2024/03/05 03:45:48;;;;;;;234.07;63.27;;;;;;;;;;4978414;28;20419;-44
2024/03/05 03:48:14;;;;;;;231.93;61.05;;;;;;;;;;4990936;28;20856;-44
2024/03/05 03:50:40;;;;;;;232.13;61.83;;;;;;;;;;4990332;28;20652;-44
2024/03/05 03:53:06;;;;;;;233.27;63.80;;;;;;;;;;4986200;28;20270;-44
2024/03/05 03:55:33;;;;;;;229.37;60.67;;;;;;;;;;4993606;28;20203;-44
2024/03/05 03:57:59;;;;;;;232.32;63.10;;;;;;;;;;4994345;28;20417;-44
2024/03/05 04:00:25;;;;;;;230.30;60.47;;;;;;;;;;4984198;28;20183;-44
2024/03/05 04:02:51;;;;;;;230.43;60.67;;;;;;;;;;4985528;28;20431;-44
2024/03/05 04:05:17;;;;;;;235.77;63.87;;;;;;;;;;4991302;28;20418;-44
2024/03/05 04:07:43;;;;;;;229.47;60.90;;;;;;;;;;4982858;28;20963;-44
2024/03/05 04:10:12;;;;;;;230.50;61.17;;;;;;;;;;4990799;28;20414;-45
2024/03/05 04:12:41;;;;;;;231.15;60.28;;;;;;;;;;4989587;28;20457;-44
2024/03/05 04:15:12;;;;;;;235.60;63.30;;;;;;;;;;4993802;28;20198;-44
2024/03/05 04:17:38;;;;;;;233.23;63.00;;;;;;;;;;4981802;28;20557;-44
2024/03/05 04:20:08;;;;;;;230.37;60.10;;;;;;;;;;4984858;28;20175;-44
2024/03/05 04:22:34;;;;;;;232.75;61.53;;;;;;;;;;4985931;28;20483;-44
2024/03/05 04:25:00;;;;;;;232.57;62.63;;;;;;;;;;4992189;28;20599;-44
2024/03/05 04:27:27;;;;;;;232.47;62.00;;;;;;;;;;4982528;28;20444;-44
2024/03/05 04:29:56;;;;;;;230.73;61.70;;;;;;;;;;4982780;28;20420;-44
2024/03/05 04:32:24;;;;;;;232.45;62.28;;;;;;;;;;4988479;28;20187;-44
2024/03/05 04:34:59;;;;;;;226.73;60.55;;;;;;;;;;4983315;28;20171;-44
2024/03/05 04:37:25;;;;;;;225.65;60.20;;;;;;;;;;4992595;28;20183;-44
2024/03/05 04:39:51;;;;;;;228.35;63.70;;;;;;;;;;4990079;28;20167;-45
2024/03/05 04:42:17;;;;;;;229.02;63.95;;;;;;;;;;4982182;28;20196;-44
2024/03/05 04:44:43;;;;;;;225.50;60.72;;;;;;;;;;4982267;28;20213;-44
2024/03/05 04:47:10;;;;;;;227.03;62.77;;;;;;;;;;4985114;28;20581;-44
2024/03/05 04:49:36;;;;;;;226.20;61.75;;;;;;;;;;4982213;28;20969;-44
2024/03/05 04:52:03;;;;;;;226.57;59.92;;;;;;;;;;4988483;28;20191;-44
2024/03/05 04:54:29;;;;;;;224.90;59.97;;;;;;;;;;4982698;28;20236;-45
2024/03/05 04:56:56;;;;;;;225.70;59.65;;;;;;;;;;4982921;28;20705;-44
2024/03/05 04:59:22;;;;;;;224.32;58.95;;;;;;;;;;4975597;28;20316;-44
2024/03/05 05:01:48;;;;;;;227.43;61.70;;;;;;;;;;4986858;28;20207;-44
2024/03/05 05:04:14;;;;;;;224.27;59.70;;;;;;;;;;4991742;28;20185;-44
2024/03/05 05:06:40;;;;;;;226.63;61.40;;;;;;;;;;4983386;28;20183;-43
2024/03/05 05:09:07;;;;;;;225.90;59.75;;;;;;;;;;4987498;28;20216;-44
2024/03/05 05:11:33;;;;;;;223.85;57.97;;;;;;;;;;4986678;28;20209;-44
2024/03/05 05:13:59;;;;;;;228.20;61.70;;;;;;;;;;4976538;28;20220;-44
2024/03/05 05:16:26;;;;;;;224.57;58.75;;;;;;;;;;4979752;28;20234;-44
2024/03/05 05:18:52;;;;;;;224.55;57.90;;;;;;;;;;4986774;28;20205;-44
2024/03/05 05:21:18;;;;;;;225.43;58.45;;;;;;;;;;4989837;28;20193;-44
2024/03/05 05:23:44;;;;;;;226.38;59.75;;;;;;;;;;4986778;28;20203;-44
2024/03/05 05:26:12;;;;;;;225.37;60.40;;;;;;;;;;4987123;28;20194;-44
2024/03/05 05:28:40;;;;;;;227.30;63.08;;;;;;;;;;4984349;28;20419;-44
2024/03/05 05:31:08;;;;;;;227.48;62.47;;;;;;;;;;4988915;28;20181;-44
2024/03/05 05:33:34;;;;;;;224.18;59.83;;;;;;;;;;4989913;28;20223;-44
2024/03/05 05:36:00;;;;;;;227.93;61.13;;;;;;;;;;4982759;28;20664;-44
2024/03/05 05:38:25;;;;;;;228.27;61.33;;;;;;;;;;4987562;28;20442;-44
2024/03/05 05:40:51;;;;;;;225.57;58.93;;;;;;;;;;4986623;28;20412;-44
2024/03/05 05:43:17;;;;;;;227.03;62.10;;;;;;;;;;4980373;28;20467;-44
2024/03/05 05:45:46;;;;;;;226.03;61.07;;;;;;;;;;4985868;28;20933;-44
2024/03/05 05:48:23;;;;;;;230.27;64.03;;;;;;;;;;4987210;28;20428;-44
2024/03/05 05:50:53;;;;;;;221.77;58.05;;;;;;;;;;4984417;28;20211;-44
2024/03/05 05:53:19;;;;;;;225.65;60.08;;;;;;;;;;4985743;28;20302;-44
2024/03/05 05:55:45;;;;;;;227.27;60.10;;;;;;;;;;4982327;28;20315;-44
2024/03/05 05:58:13;;;;;;;230.30;65.30;;;;;;;;;;4985701;28;20426;-44
2024/03/05 06:00:40;;;;;;;229.90;63.20;;;;;;;;;;4985006;28;20187;-44
2024/03/05 06:03:09;;;;;;;226.10;59.75;;;;;;;;;;4974482;28;20629;-44
2024/03/05 06:05:36;;;;;;;225.90;59.95;;;;;;;;;;4986318;28;20188;-44
2024/03/05 06:08:03;;;;;;;224.77;59.05;;;;;;;;;;4975634;28;20188;-44
2024/03/05 06:10:30;;;;;;;224.50;59.03;;;;;;;;;;4983428;28;20198;-44
2024/03/05 06:12:56;;;;;;;226.68;60.58;;;;;;;;;;4974173;28;20546;-45
2024/03/05 06:15:23;;;;;;;226.13;61.55;;;;;;;;;;4982803;28;20208;-44
2024/03/05 06:17:50;;;;;;;224.27;59.22;;;;;;;;;;4984872;28;20176;-44
2024/03/05 06:20:16;;;;;;;225.13;59.28;;;;;;;;;;4984600;28;20227;-43
2024/03/05 06:22:43;;;;;;;225.35;59.55;;;;;;;;;;4985007;28;20205;-44
2024/03/05 06:25:11;;;;;;;230.20;62.20;;;;;;;;;;4983147;28;20184;-44
2024/03/05 06:27:38;;;;;;;225.20;59.08;;;;;;;;;;4975643;28;20176;-44
2024/03/05 06:30:07;;;;;;;226.95;60.80;;;;;;;;;;4983027;28;20186;-44
2024/03/05 06:32:36;;;;;;;225.05;58.25;;;;;;;;;;4986903;28;20709;-44
2024/03/05 06:35:02;;;;;;;229.25;61.20;;;;;;;;;;4983553;28;20208;-44
2024/03/05 06:37:28;;;;;;;223.47;58.07;;;;;;;;;;4982800;28;20214;-44
2024/03/05 06:39:54;;;;;;;229.63;61.60;;;;;;;;;;4978754;28;20494;-44
2024/03/05 06:42:23;;;;;;;225.43;58.13;;;;;;;;;;4982965;28;20278;-44
2024/03/05 06:44:54;;;;;;;226.68;59.50;;;;;;;;;;4985973;28;20423;-44
2024/03/05 06:47:27;;;;;;;226.75;60.17;;;;;;;;;;4980231;28;20177;-44
2024/03/05 06:49:57;;;;;;;224.32;58.17;;;;;;;;;;4986963;28;20171;-44
2024/03/05 06:57:52;;;;;;;224.95;59.60;;;;;;;;;;4984085;28;20570;-44
2024/03/05 07:00:18;;;;;;;227.30;61.30;;;;;;;;;;4990320;28;20207;-44
2024/03/05 07:02:44;;;;;;;225.82;59.30;;;;;;;;;;4983277;28;20279;-44
2024/03/05 07:05:10;;;;;;;229.30;62.35;;;;;;;;;;4985668;28;20763;-44
2024/03/05 07:07:37;;;;;;;225.68;59.30;;;;;;;;;;4987408;28;20220;-44
2024/03/05 07:10:13;;;;;;;227.52;61.25;;;;;;;;;;4981454;28;20193;-44
2024/03/05 07:12:39;;;;;;;223.82;58.63;;;;;;;;;;4986034;28;20234;-44
2024/03/05 07:15:09;;;;;;;228.75;61.95;;;;;;;;;;4986439;28;20238;-44
2024/03/05 07:17:35;;;;;;;228.00;62.17;;;;;;;;;;4986261;28;20597;-44
2024/03/05 07:20:03;;;;;;;227.95;60.40;;;;;;;;;;4990556;28;20192;-44
2024/03/05 07:22:29;;;;;;;226.00;60.13;;;;;;;;;;4991741;28;20297;-44
2024/03/05 07:24:55;;;;;;;228.40;60.67;;;;;;;;;;4983030;28;20255;-44
2024/03/05 07:27:21;;;;;;;229.93;63.60;;;;;;;;;;4982380;28;20184;-44
2024/03/05 07:29:47;;;;;;;231.23;64.78;;;;;;;;;;4986231;28;20624;-45
2024/03/05 07:32:15;;;;;;;229.02;62.53;;;;;;;;;;4973010;28;20625;-44
2024/03/05 07:34:41;;;;;;;230.98;64.45;;;;;;;;;;4991125;28;20177;-44
2024/03/05 07:37:08;;;;;;;227.30;60.53;;;;;;;;;;4991119;28;20212;-45
2024/03/05 07:39:34;;;;;;;229.25;62.20;;;;;;;;;;4990685;28;20548;-44
2024/03/05 07:42:00;;;;;;;231.83;64.57;;;;;;;;;;4990011;28;20170;-45
2024/03/05 07:44:26;;;;;;;234.23;68.55;;;;;;;;;;4982252;28;20409;-44
2024/03/05 07:46:52;;;;;;;228.48;60.65;;;;;;;;;;4980585;28;20827;-44
2024/03/05 07:49:18;;;;;;;231.73;65.20;;;;;;;;;;4991547;28;20192;-44
2024/03/05 07:51:44;;;;;;;230.57;63.83;;;;;;;;;;4989351;28;20512;-45
2024/03/05 07:54:10;;;;;;;226.23;60.70;;;;;;;;;;4988574;28;20858;-44
2024/03/05 07:56:36;;;;;;;228.10;60.00;;;;;;;;;;4986920;28;20545;-44
2024/03/05 07:59:02;;;;;;;233.90;67.47;;;;;;;;;;4988850;28;20490;-44
2024/03/05 08:01:28;;;;;;;230.07;62.35;;;;;;;;;;4986980;28;20515;-44
2024/03/05 08:03:54;;;;;;;231.20;62.00;;;;;;;;;;4989594;28;20192;-45
2024/03/05 08:06:20;;;;;;;229.77;63.60;;;;;;;;;;4988007;28;20506;-44
2024/03/05 08:08:46;;;;;;;233.23;65.17;;;;;;;;;;4986952;28;20688;-44
2024/03/05 08:11:12;;;;;;;230.80;64.57;;;;;;;;;;4982591;28;20463;-44
2024/03/05 08:13:38;;;;;;;232.20;66.45;;;;;;;;;;4981181;28;20499;-44
2024/03/05 08:16:04;;;;;;;231.57;63.93;;;;;;;;;;4988390;28;20284;-44
2024/03/05 08:18:31;;;;;;;232.07;65.63;;;;;;;;;;4983615;28;20426;-44
2024/03/05 08:20:57;;;;;;;236.85;67.60;;;;;;;;;;4988534;28;20184;-44
2024/03/05 08:23:23;;;;;;;239.03;71.70;;;;;;;;;;4987400;28;20197;-45
2024/03/05 08:25:49;;;;;;;233.20;63.53;;;;;;;;;;4983851;28;20461;-44
2024/03/05 08:28:15;;;;;;;234.50;64.68;;;;;;;;;;4981239;28;20424;-44
2024/03/05 08:30:42;;;;;;;235.93;67.13;;;;;;;;;;4985263;28;20181;-44
2024/03/05 08:33:08;;;;;;;237.13;66.18;;;;;;;;;;4983521;28;20494;-44
2024/03/05 08:35:34;;;;;;;240.10;70.18;;;;;;;;;;4985238;28;20669;-44
2024/03/05 08:38:00;;;;;;;238.90;68.37;;;;;;;;;;4982185;28;20173;-44
2024/03/05 08:40:27;;;;;;;239.57;69.60;;;;;;;;;;4986719;28;20447;-44
2024/03/05 08:42:58;;;;;;;239.23;69.47;;;;;;;;;;4982621;28;20436;-44
2024/03/05 08:45:24;;;;;;;241.45;69.38;;;;;;;;;;4985686;28;20180;-44
2024/03/05 08:47:53;;;;;;;239.37;69.10;;;;;;;;;;4987230;28;20173;-44
2024/03/05 08:50:19;;;;;;;240.65;68.70;;;;;;;;;;4983805;28;20405;-44
2024/03/05 08:52:48;;;;;;;245.73;74.93;;;;;;;;;;4986274;28;20244;-45
2024/03/05 08:55:15;;;;;;;246.32;76.30;;;;;;;;;;4970719;28;20213;-45
2024/03/05 08:57:41;;;;;;;243.20;72.75;;;;;;;;;;4978871;28;20172;-44
2024/03/05 09:00:08;;;;;;;242.13;71.53;;;;;;;;;;4982774;28;20194;-44
2024/03/05 09:02:37;;;;;;;241.93;72.85;;;;;;;;;;4985748;28;20200;-44
2024/03/05 09:05:03;;;;;;;245.00;75.32;;;;;;;;;;4983485;28;20178;-45
2024/03/05 09:07:29;;;;;;;245.93;75.53;;;;;;;;;;4983937;28;20198;-44
2024/03/05 09:09:55;;;;;;;243.07;73.03;;;;;;;;;;4989927;28;20176;-45
2024/03/05 09:12:21;;;;;;;244.53;74.93;;;;;;;;;;4985586;28;20298;-45
2024/03/05 09:14:47;;;;;;;243.60;73.37;;;;;;;;;;4992932;28;20440;-45
2024/03/05 09:17:13;;;;;;;248.63;80.82;;;;;;;;;;4992517;28;20458;-45
2024/03/05 09:19:39;;;;;;;246.77;77.53;;;;;;;;;;4991283;28;21013;-44
2024/03/05 09:22:05;;;;;;;248.00;77.10;;;;;;;;;;4989827;28;20183;-44
2024/03/05 09:24:35;;;;;;;248.23;79.10;;;;;;;;;;4978497;28;20421;-45
2024/03/05 09:27:01;;;;;;;252.18;82.10;;;;;;;;;;4980519;28;20180;-44
2024/03/05 09:29:27;;;;;;;246.57;76.88;;;;;;;;;;4991375;28;20183;-45
2024/03/05 09:31:53;;;;;;;247.93;79.20;;;;;;;;;;4984678;28;20181;-45
2024/03/05 09:34:20;;;;;;;248.90;79.60;;;;;;;;;;4983747;28;20180;-45
2024/03/05 09:36:45;;;;;;;248.50;79.43;;;;;;;;;;4987461;28;20463;-44
2024/03/05 09:39:11;;;;;;;247.47;79.03;;;;;;;;;;4989248;28;20228;-45
2024/03/05 09:41:42;;;;;;;247.63;79.03;;;;;;;;;;4981487;28;20405;-45
2024/03/05 09:44:08;;;;;;;251.88;82.10;;;;;;;;;;4986491;28;20433;-45
2024/03/05 09:46:38;;;;;;;251.82;81.45;;;;;;;;;;4985532;28;20831;-44
2024/03/05 09:49:05;;;;;;;248.38;79.47;;;;;;;;;;4984422;28;20181;-45
2024/03/05 09:51:33;;;;;;;251.40;84.50;;;;;;;;;;4992396;28;20675;-45
2024/03/05 09:53:59;;;;;;;248.88;79.13;;;;;;;;;;4984437;28;20763;-45
2024/03/05 09:56:25;;;;;;;248.57;81.63;;;;;;;;;;4992041;28;20707;-45
2024/03/05 09:58:52;;;;;;;247.03;79.77;;;;;;;;;;4984156;28;20201;-45
2024/03/05 10:01:18;;;;;;;251.40;82.47;;;;;;;;;;4977043;28;20912;-45
2024/03/05 10:03:44;;;;;;;254.50;92.32;;;;;;;;;;4990642;28;20213;-45
2024/03/05 10:06:11;;;;;;;247.75;78.07;;;;;;;;;;4972795;28;20173;-45
2024/03/05 10:08:37;;;;;;;248.40;80.90;;;;;;;;;;4980715;28;20177;-44
2024/03/05 10:11:04;;;;;;;244.23;76.07;;;;;;;;;;4983583;28;20185;-45
2024/03/05 10:13:31;;;;;;;247.68;78.60;;;;;;;;;;4984704;28;20515;-45
2024/03/05 10:16:23;;;;;;;251.98;83.40;;;;;;;;;;4973625;28;20208;-44
2024/03/05 10:18:50;;;;;;;250.25;83.43;;;;;;;;;;4974701;28;20224;-45
2024/03/05 10:21:20;;;;;;;246.90;79.40;;;;;;;;;;4988137;28;20209;-44
2024/03/05 10:24:02;;;;;;;246.50;76.35;;;;;;;;;;4980498;28;20197;-45
2024/03/05 10:26:29;;;;;;;244.77;77.00;;;;;;;;;;4974212;28;20180;-45
2024/03/05 10:28:57;;;;;;;246.13;78.00;;;;;;;;;;4981417;28;20174;-44
2024/03/05 10:31:26;;;;;;;247.70;77.22;;;;;;;;;;4977824;28;20187;-44
2024/03/05 10:33:58;;;;;;;243.63;74.97;;;;;;;;;;4986628;28;20200;-45
2024/03/05 10:36:28;;;;;;;241.02;74.10;;;;;;;;;;4991592;28;20223;-45
2024/03/05 10:38:55;;;;;;;249.00;80.82;;;;;;;;;;4982536;28;20206;-45
2024/03/05 10:41:21;;;;;;;245.88;78.35;;;;;;;;;;4982114;28;20179;-44
2024/03/05 10:43:50;;;;;;;246.90;77.88;;;;;;;;;;4983440;28;20195;-45
2024/03/05 10:46:17;;;;;;;246.45;78.10;;;;;;;;;;4972428;28;20181;-44
2024/03/05 10:48:43;;;;;;;248.55;82.93;;;;;;;;;;4980477;28;20185;-45
2024/03/05 10:51:12;;;;;;;242.87;75.00;;;;;;;;;;4989848;28;20267;-44
2024/03/05 10:53:39;;;;;;;243.68;75.32;;;;;;;;;;4984599;28;20605;-44
2024/03/05 10:56:06;;;;;;;245.40;77.13;;;;;;;;;;4988195;28;20211;-44
2024/03/05 11:01:08;;;;;;;242.88;73.75;;;;;;;;;;4986529;28;20243;-44
2024/03/05 11:03:39;;;;;;;240.60;72.47;;;;;;;;;;4991518;28;20312;-44
2024/03/05 11:06:06;;;;;;;243.85;77.28;;;;;;;;;;4980863;28;20180;-44
2024/03/05 11:08:35;;;;;;;244.88;74.75;;;;;;;;;;4980029;28;20178;-45
2024/03/05 11:11:05;;;;;;;244.32;73.65;;;;;;;;;;4989815;28;20179;-44
2024/03/05 11:13:32;;;;;;;244.77;76.15;;;;;;;;;;4983308;28;20196;-44
2024/03/05 11:16:00;;;;;;;242.10;73.40;;;;;;;;;;4981664;28;20305;-44
2024/03/05 11:18:36;;;;;;;243.00;76.05;;;;;;;;;;4979923;28;20529;-44
2024/03/05 11:21:05;;;;;;;241.35;73.50;;;;;;;;;;4989940;28;20169;-44
2024/03/05 11:23:32;;;;;;;241.73;72.43;;;;;;;;;;4991488;28;20199;-44
2024/03/05 11:26:03;;;;;;;241.75;72.70;;;;;;;;;;4983013;28;20191;-45
2024/03/05 11:28:30;;;;;;;241.82;73.28;;;;;;;;;;4983209;28;20178;-44
2024/03/05 11:31:16;;;;;;;241.73;72.82;;;;;;;;;;4981849;28;20576;-44
2024/03/05 11:33:42;;;;;;;240.52;70.50;;;;;;;;;;4987027;28;20196;-44
2024/03/05 11:36:21;;;;;;;239.73;72.47;;;;;;;;;;4990873;28;20205;-44
2024/03/05 11:38:56;;;;;;;240.48;71.15;;;;;;;;;;4980834;28;20507;-45
2024/03/05 11:41:25;;;;;;;244.20;75.55;;;;;;;;;;4975971;28;20175;-45
2024/03/05 11:43:52;;;;;;;243.95;75.78;;;;;;;;;;4976642;28;20703;-45
2024/03/05 11:46:36;;;;;;;243.23;73.30;;;;;;;;;;4989412;28;20210;-44
2024/03/05 11:49:04;;;;;;;242.10;74.30;;;;;;;;;;4972866;28;20700;-44
2024/03/05 11:51:30;;;;;;;240.65;72.45;;;;;;;;;;4985964;28;20178;-44
2024/03/05 11:53:56;;;;;;;243.30;73.77;;;;;;;;;;4984562;28;20574;-45
2024/03/05 11:56:22;;;;;;;239.67;70.27;;;;;;;;;;4983317;28;20463;-44
2024/03/05 11:58:51;;;;;;;239.97;73.17;;;;;;;;;;4986192;28;20419;-44
2024/03/05 12:01:17;;;;;;;240.75;72.82;;;;;;;;;;4986321;28;20415;-44
2024/03/05 12:03:43;;;;;;;238.90;70.93;;;;;;;;;;4986779;28;20200;-45
2024/03/05 12:06:15;;;;;;;238.93;71.67;;;;;;;;;;4990578;28;20448;-44
2024/03/05 12:08:41;;;;;;;242.48;74.35;;;;;;;;;;4974429;28;20423;-44
2024/03/05 12:11:08;;;;;;;241.37;71.87;;;;;;;;;;4993497;28;20267;-45
2024/03/05 12:13:34;;;;;;;239.35;70.32;;;;;;;;;;4985827;28;20493;-44
2024/03/05 12:16:14;;;;;;;241.88;72.18;;;;;;;;;;4992097;28;20601;-44
2024/03/05 12:18:40;;;;;;;239.27;73.22;;;;;;;;;;4982573;28;20170;-44
2024/03/05 12:21:06;;;;;;;241.02;70.07;;;;;;;;;;4993028;28;20729;-44
2024/03/05 12:23:36;;;;;;;239.00;69.15;;;;;;;;;;4987724;28;20204;-44
2024/03/05 12:26:02;;;;;;;242.13;72.78;;;;;;;;;;4984001;28;20177;-44
2024/03/05 12:28:31;;;;;;;238.10;68.65;;;;;;;;;;4993738;28;20181;-44
2024/03/05 12:30:56;;;;;;;241.45;72.25;;;;;;;;;;4985662;28;20313;-44
2024/03/05 12:33:26;;;;;;;241.47;71.67;;;;;;;;;;4985323;28;20671;-44
2024/03/05 12:35:53;;;;;;;237.43;68.40;;;;;;;;;;4982622;28;20455;-44
2024/03/05 12:38:19;;;;;;;237.02;66.88;;;;;;;;;;4982401;28;20173;-44
2024/03/05 12:40:45;;;;;;;237.45;66.10;;;;;;;;;;4989982;28;20230;-43
2024/03/05 12:43:13;;;;;;;237.40;67.25;;;;;;;;;;4985319;28;20854;-44
2024/03/05 12:45:39;;;;;;;236.85;67.82;;;;;;;;;;4985260;28;20184;-44
2024/03/05 12:48:08;;;;;;;241.73;72.07;;;;;;;;;;4982775;28;20185;-44
2024/03/05 12:50:35;;;;;;;237.88;68.03;;;;;;;;;;4981832;28;20414;-44
2024/03/05 12:53:01;;;;;;;237.48;68.00;;;;;;;;;;4991305;28;20316;-44
2024/03/05 12:55:28;;;;;;;236.90;66.22;;;;;;;;;;4990544;28;20239;-45
2024/03/05 12:58:05;;;;;;;237.70;68.32;;;;;;;;;;4984994;28;20224;-44
2024/03/05 13:00:34;;;;;;;237.50;67.30;;;;;;;;;;4993167;28;20559;-44
2024/03/05 13:03:04;;;;;;;238.52;68.00;;;;;;;;;;4993102;28;20193;-44
2024/03/05 13:05:30;;;;;;;236.73;65.10;;;;;;;;;;4992811;28;20189;-44
2024/03/05 13:07:56;;;;;;;237.15;66.82;;;;;;;;;;4992908;28;20184;-44
2024/03/05 13:10:22;;;;;;;234.57;64.13;;;;;;;;;;4988544;28;20188;-44
2024/03/05 13:12:48;;;;;;;236.73;64.10;;;;;;;;;;4981453;28;20201;-44
2024/03/05 13:15:14;;;;;;;241.93;68.37;;;;;;;;;;4984686;28;20235;-44
2024/03/05 13:17:40;;;;;;;236.73;67.53;;;;;;;;;;4984935;28;20911;-44
2024/03/05 13:20:18;;;;;;;239.82;69.00;;;;;;;;;;4982542;28;20175;-44
2024/03/05 13:22:48;;;;;;;236.63;65.38;;;;;;;;;;4988934;28;20676;-44
2024/03/05 13:25:15;;;;;;;243.32;70.22;;;;;;;;;;4976727;28;20169;-44
2024/03/05 13:27:48;;;;;;;238.35;66.00;;;;;;;;;;4992516;28;20521;-44
2024/03/05 13:30:16;;;;;;;236.10;68.95;;;;;;;;;;4989412;28;20181;-44
2024/03/05 13:32:46;;;;;;;235.43;64.35;;;;;;;;;;4988543;28;20216;-43
2024/03/05 13:35:13;;;;;;;238.27;66.88;;;;;;;;;;4984140;28;20647;-44
2024/03/05 13:37:39;;;;;;;234.45;62.30;;;;;;;;;;4985681;28;20181;-44
2024/03/05 13:40:06;;;;;;;235.55;63.35;;;;;;;;;;4983409;28;20260;-44
2024/03/05 13:42:35;;;;;;;236.05;65.72;;;;;;;;;;4984781;28;20215;-44
2024/03/05 13:45:01;;;;;;;235.77;65.22;;;;;;;;;;4984149;28;20173;-44
2024/03/05 13:47:26;;;;;;;234.20;62.67;;;;;;;;;;4987280;28;20184;-44
2024/03/05 13:49:52;;;;;;;235.83;64.63;;;;;;;;;;4981466;28;20417;-44
2024/03/05 13:52:18;;;;;;;234.43;63.78;;;;;;;;;;4984083;28;20519;-44
2024/03/05 13:54:44;;;;;;;235.53;64.47;;;;;;;;;;4990404;28;20363;-44
2024/03/05 13:57:10;;;;;;;233.33;62.37;;;;;;;;;;4983387;28;20475;-43
2024/03/05 13:59:36;;;;;;;235.23;62.63;;;;;;;;;;4992047;28;20411;-44
2024/03/05 14:02:02;;;;;;;240.60;67.47;;;;;;;;;;4991000;28;20419;-44
2024/03/05 14:04:28;;;;;;;235.23;64.00;;;;;;;;;;4983907;28;20403;-44
2024/03/05 14:06:54;;;;;;;238.73;68.05;;;;;;;;;;4983539;28;20272;-44
2024/03/05 14:09:21;;;;;;;238.87;66.37;;;;;;;;;;4983118;28;20255;-44
2024/03/05 14:11:50;;;;;;;236.07;64.63;;;;;;;;;;4991877;28;20935;-44